Time;durP1;ratioP1;P1;durP2;ratioP2;P2;SDS_P1;SDS_P2;PMS_P1;PMS_P2;Temp;Humidity;BMP_temperature;BMP_pressure;BME280_temperature;BME280_humidity;BME280_pressure;Samples;Min_cycle;Max_cycle;Signal;HPM_P1;HPM_P2
2021/12/19 00:13:49;;;;;;;12.90;6.67;;;5.30;99.90;;;;;;10477965;28;20236;-79
2021/12/19 00:19:11;;;;;;;17.53;5.60;;;5.30;99.90;;;;;;10446401;28;20298;-80
2021/12/19 00:24:33;;;;;;;16.30;5.97;;;5.30;99.90;;;;;;10446108;28;20462;-80
2021/12/19 00:29:55;;;;;;;15.30;5.57;;;5.40;99.90;;;;;;10449057;28;20486;-79
2021/12/19 00:35:17;;;;;;;12.43;5.70;;;5.40;99.90;;;;;;10459242;28;20233;-78
2021/12/19 00:40:39;;;;;;;16.53;5.37;;;5.40;99.90;;;;;;10459881;28;20304;-78
2021/12/19 00:46:07;;;;;;;20.90;6.20;;;5.40;99.90;;;;;;10446238;28;20201;-80
2021/12/19 00:51:29;;;;;;;16.73;5.73;;;5.50;99.90;;;;;;10445852;28;20277;-77
2021/12/19 00:56:52;;;;;;;14.50;4.83;;;5.50;99.90;;;;;;10459513;28;20199;-80
2021/12/19 01:02:13;;;;;;;22.20;5.43;;;5.50;99.90;;;;;;10445796;28;20221;-77
2021/12/19 01:07:36;;;;;;;16.17;5.30;;;5.50;99.90;;;;;;10445477;28;20253;-80
2021/12/19 01:13:01;;;;;;;17.90;4.57;;;5.60;99.90;;;;;;10480142;28;20204;-78
2021/12/19 01:18:24;;;;;;;18.23;5.30;;;5.60;99.90;;;;;;10439708;28;20208;-77
2021/12/19 01:23:46;;;;;;;12.60;4.33;;;5.50;99.90;;;;;;10439111;28;20528;-78
2021/12/19 01:29:10;;;;;;;17.93;4.77;;;5.50;99.90;;;;;;10484363;28;20202;-78
2021/12/19 01:34:32;;;;;;;18.40;4.37;;;5.50;99.90;;;;;;10468615;28;20242;-78
2021/12/19 01:39:54;;;;;;;12.13;4.57;;;5.50;99.90;;;;;;10469076;28;20492;-77
2021/12/19 01:45:27;;;;;;;12.43;5.10;;;5.60;99.90;;;;;;10452345;28;20222;-77
2021/12/19 01:50:55;;;;;;;19.10;4.67;;;5.60;99.90;;;;;;10452884;28;20459;-77
2021/12/19 01:56:17;;;;;;;18.70;4.83;;;5.50;99.90;;;;;;10452343;28;20198;-78
2021/12/19 02:01:43;;;;;;;12.13;4.47;;;5.40;99.90;;;;;;10465475;28;20218;-78
2021/12/19 02:07:05;;;;;;;18.40;4.47;;;5.50;99.90;;;;;;10470612;28;20420;-79
2021/12/19 02:12:27;;;;;;;11.90;4.03;;;5.50;99.90;;;;;;10451411;28;20205;-80
2021/12/19 02:17:52;;;;;;;17.47;4.67;;;5.40;99.90;;;;;;10482760;28;20392;-78
2021/12/19 02:23:14;;;;;;;13.13;4.50;;;5.50;99.90;;;;;;10466543;28;20229;-78
2021/12/19 02:28:36;;;;;;;15.73;3.83;;;5.50;99.90;;;;;;10436962;28;20279;-80
2021/12/19 02:34:07;;;;;;;10.43;4.20;;;5.60;99.90;;;;;;10446438;28;20606;-78
2021/12/19 02:50:53;;;;;;;12.40;3.87;;;5.50;99.90;;;;;;10449748;28;20277;-80
2021/12/19 02:56:15;;;;;;;12.37;3.40;;;5.50;99.90;;;;;;10452607;28;20190;-78
2021/12/19 03:01:37;;;;;;;9.87;2.90;;;5.50;99.90;;;;;;10466013;28;20230;-78
2021/12/19 03:06:59;;;;;;;10.53;3.20;;;5.40;99.90;;;;;;10452179;28;20380;-78
2021/12/19 03:12:44;;;;;;;16.03;3.97;;;5.40;99.90;;;;;;10451962;28;20198;-78
2021/12/19 03:18:10;;;;;;;8.10;3.20;;;5.50;99.90;;;;;;10465613;28;20191;-78
2021/12/19 03:23:32;;;;;;;12.63;3.47;;;5.50;99.90;;;;;;10451712;28;20572;-78
2021/12/19 03:28:54;;;;;;;10.03;2.57;;;5.40;99.90;;;;;;10448156;28;20211;-78
2021/12/19 03:34:18;;;;;;;15.77;3.00;;;5.30;99.90;;;;;;10434390;28;20445;-78
2021/12/19 03:40:08;;;;;;;9.67;3.57;;;5.40;99.90;;;;;;10448163;28;20253;-78
2021/12/19 03:45:30;;;;;;;13.13;4.07;;;5.40;99.90;;;;;;10447801;28;20202;-78
2021/12/19 03:50:53;;;;;;;8.53;2.87;;;5.40;99.90;;;;;;10464325;28;20224;-78
2021/12/19 03:56:15;;;;;;;16.90;4.50;;;5.40;99.90;;;;;;10447360;28;20199;-78
2021/12/19 04:01:37;;;;;;;11.07;3.13;;;5.40;99.90;;;;;;10460503;28;20222;-77
2021/12/19 04:06:59;;;;;;;11.77;3.13;;;5.40;99.90;;;;;;10463689;28;20198;-78
2021/12/19 04:12:27;;;;;;;10.60;3.37;;;5.40;99.90;;;;;;10422493;28;20567;-77
2021/12/19 04:17:49;;;;;;;14.93;5.70;;;5.50;99.90;;;;;;10405512;28;20249;-78
2021/12/19 04:23:12;;;;;;;16.87;6.17;;;5.40;99.90;;;;;;10392074;28;20250;-77
2021/12/19 04:28:34;;;;;;;16.10;4.23;;;5.40;99.90;;;;;;10419060;28;20221;-79
2021/12/19 04:33:57;;;;;;;14.23;3.77;;;5.50;99.90;;;;;;10425678;28;20242;-78
2021/12/19 04:39:27;;;;;;;13.17;3.67;;;5.50;99.90;;;;;;10463336;28;20237;-78
2021/12/19 04:56:27;;;;;;;11.47;3.70;;;5.40;99.90;;;;;;10468003;28;20364;-78
2021/12/19 05:18:53;;;;;;;11.60;3.50;;;5.40;99.90;;;;;;10453362;28;20273;-79
2021/12/19 05:24:45;;;;;;;8.17;2.80;;;5.40;99.90;;;;;;10453086;28;20297;-78
2021/12/19 05:30:05;;;;;;;12.50;3.67;;;5.40;99.90;;;;;;10466308;28;20204;-78
2021/12/19 05:46:48;;;;;;;7.60;3.03;;;5.40;99.90;;;;;;10417579;28;20225;-77
2021/12/19 05:52:10;;;;;;;7.27;2.30;;;5.40;99.90;;;;;;10423126;28;20199;-77
2021/12/19 05:57:33;;;;;;;8.60;2.50;;;5.30;99.90;;;;;;10421060;28;20196;-79
2021/12/19 06:02:55;;;;;;;9.03;3.20;;;5.30;99.90;;;;;;10485531;28;20410;-78
2021/12/19 06:08:17;;;;;;;9.07;3.20;;;5.40;99.90;;;;;;10458883;28;20254;-77
2021/12/19 06:13:39;;;;;;;10.77;3.10;;;5.30;99.90;;;;;;10469060;28;20199;-77
2021/12/19 06:19:02;;;;;;;9.90;2.97;;;5.30;99.90;;;;;;10467958;28;20262;-78
2021/12/19 06:24:25;;;;;;;12.30;2.90;;;5.30;99.90;;;;;;10464351;28;20226;-77
2021/12/19 06:29:49;;;;;;;13.43;3.03;;;5.30;99.90;;;;;;10496219;28;20565;-79
2021/12/19 06:35:18;;;;;;;11.20;3.63;;;5.30;99.90;;;;;;10487065;28;20258;-79
2021/12/19 06:40:40;;;;;;;11.47;3.10;;;5.30;99.90;;;;;;10450010;28;20252;-80
2021/12/19 06:46:02;;;;;;;11.10;3.03;;;5.30;99.90;;;;;;10450286;28;20207;-80
2021/12/19 06:51:24;;;;;;;14.70;2.50;;;5.30;99.90;;;;;;10450101;28;20282;-79
2021/12/19 06:56:47;;;;;;;7.63;2.87;;;5.30;99.90;;;;;;10450811;28;20203;-80
2021/12/19 07:02:14;;;;;;;14.40;6.33;;;5.30;99.90;;;;;;10427494;28;20230;-80
2021/12/19 07:07:37;;;;;;;46.70;22.90;;;5.30;99.90;;;;;;10449506;28;20551;-80
2021/12/19 07:12:59;;;;;;;70.33;37.07;;;5.30;99.90;;;;;;10448159;28;20207;-80
2021/12/19 07:18:22;;;;;;;25.97;15.00;;;5.30;99.90;;;;;;10448889;28;20308;-80
2021/12/19 07:23:44;;;;;;;43.20;22.57;;;5.30;99.90;;;;;;10448767;28;20238;-79
2021/12/19 07:29:07;;;;;;;47.67;24.93;;;5.30;99.90;;;;;;10448057;28;20194;-81
2021/12/19 07:34:32;;;;;;;26.13;11.47;;;5.30;99.90;;;;;;10464745;28;20253;-79
2021/12/19 07:40:03;;;;;;;14.60;7.60;;;5.30;99.90;;;;;;10448167;28;20249;-80
2021/12/19 07:45:25;;;;;;;10.90;3.67;;;5.30;99.90;;;;;;10458913;28;20231;-81
2021/12/19 07:50:47;;;;;;;13.90;3.70;;;5.40;99.90;;;;;;10434049;28;20229;-81
2021/12/19 07:56:09;;;;;;;10.93;4.07;;;5.40;99.90;;;;;;10471621;28;20417;-80
2021/12/19 08:01:32;;;;;;;14.33;4.67;;;5.40;99.90;;;;;;10433835;28;20221;-80
2021/12/19 08:06:54;;;;;;;17.87;6.80;;;5.40;99.90;;;;;;10447221;28;20198;-80
2021/12/19 08:12:16;;;;;;;27.60;10.20;;;5.50;99.90;;;;;;10446537;28;20213;-80
2021/12/19 08:17:38;;;;;;;20.47;9.10;;;5.50;99.90;;;;;;10478497;28;20195;-79
2021/12/19 08:23:01;;;;;;;24.17;11.90;;;5.60;99.90;;;;;;10462406;28;20473;-80
2021/12/19 08:28:22;;;;;;;19.07;6.13;;;5.60;99.90;;;;;;10462950;28;20197;-80
2021/12/19 08:33:44;;;;;;;12.07;5.90;;;5.60;99.90;;;;;;10439865;28;20214;-79
2021/12/19 08:39:10;;;;;;;15.77;5.30;;;5.70;99.90;;;;;;10421519;28;20401;-80
2021/12/19 08:44:33;;;;;;;13.93;5.37;;;5.60;99.90;;;;;;10404897;28;20234;-80
2021/12/19 08:49:55;;;;;;;15.77;5.40;;;5.60;99.90;;;;;;10421954;28;20387;-80
2021/12/19 08:55:19;;;;;;;16.03;5.27;;;5.60;99.90;;;;;;10404817;28;20213;-79
2021/12/19 09:00:41;;;;;;;13.40;4.60;;;5.70;99.90;;;;;;10462331;28;20520;-80
2021/12/19 09:06:05;;;;;;;12.93;5.03;;;5.70;99.90;;;;;;10432814;28;20244;-80
2021/12/19 09:11:26;;;;;;;15.27;6.50;;;5.70;99.90;;;;;;10462163;28;20555;-80
2021/12/19 09:16:49;;;;;;;10.50;3.53;;;5.70;99.90;;;;;;10448355;28;20253;-80
2021/12/19 09:22:11;;;;;;;13.63;5.77;;;5.80;99.90;;;;;;10462016;28;20273;-80
2021/12/19 09:27:34;;;;;;;12.60;6.43;;;5.80;99.90;;;;;;10445359;28;20203;-79
2021/12/19 09:32:56;;;;;;;12.10;4.97;;;5.70;99.90;;;;;;10418047;28;20210;-80
2021/12/19 09:38:20;;;;;;;11.30;4.73;;;5.80;99.90;;;;;;10428182;28;20243;-79
2021/12/19 09:43:44;;;;;;;14.17;4.13;;;5.70;99.90;;;;;;10428622;28;20250;-79
2021/12/19 09:49:09;;;;;;;18.40;6.07;;;5.70;99.90;;;;;;10424830;28;20199;-80
2021/12/19 09:54:32;;;;;;;16.27;6.97;;;5.70;99.90;;;;;;10397311;28;20199;-79
2021/12/19 09:59:55;;;;;;;14.67;6.17;;;5.80;99.90;;;;;;10451494;28;20195;-80
2021/12/19 10:05:28;;;;;;;12.00;5.50;;;5.80;99.90;;;;;;10440943;28;20249;-79
2021/12/19 10:10:58;;;;;;;11.77;4.57;;;5.80;99.90;;;;;;10483254;28;20202;-79
2021/12/19 10:16:26;;;;;;;7.87;3.90;;;5.80;99.90;;;;;;10464817;28;20435;-80
2021/12/19 10:21:48;;;;;;;15.13;6.30;;;5.80;99.90;;;;;;10464535;28;20557;-80
2021/12/19 10:27:47;;;;;;;11.63;5.10;;;5.90;99.90;;;;;;10467700;28;20221;-80
2021/12/19 10:33:18;;;;;;;30.83;9.40;;;5.80;99.90;;;;;;10440482;28;20206;-80
2021/12/19 10:38:50;;;;;;;20.17;8.23;;;5.80;99.90;;;;;;10436717;28;20249;-79
2021/12/19 10:50:00;;;;;;;14.90;5.23;;;5.90;99.90;;;;;;10261252;29;20241;-80
2021/12/19 10:55:28;;;;;;;13.30;5.57;;;5.80;99.90;;;;;;10262347;28;20249;-80
2021/12/19 11:01:05;;;;;;;12.20;4.97;;;5.90;99.90;;;;;;10259061;29;20213;-80
2021/12/19 11:06:56;;;;;;;9.60;3.87;;;5.80;99.90;;;;;;10261232;29;20245;-80
2021/12/19 11:12:18;;;;;;;12.10;2.53;;;5.90;99.90;;;;;;10258308;29;20493;-80
2021/12/19 11:17:41;;;;;;;7.77;3.20;;;5.80;99.90;;;;;;10257549;29;20330;-81
2021/12/19 11:23:03;;;;;;;8.67;3.10;;;5.80;99.90;;;;;;10234328;28;20258;-81
2021/12/19 11:28:25;;;;;;;8.77;3.53;;;5.90;99.90;;;;;;10448294;28;20497;-80
2021/12/19 11:34:16;;;;;;;10.10;4.53;;;5.90;99.90;;;;;;10447357;28;20273;-79
2021/12/19 11:39:42;;;;;;;8.50;2.97;;;5.90;99.90;;;;;;10437379;28;20229;-80
2021/12/19 11:50:56;;;;;;;7.00;2.87;;;6.10;99.90;;;;;;10445143;28;20201;-81
2021/12/19 11:56:20;;;;;;;5.33;2.33;;;6.10;99.90;;;;;;10460469;28;20194;-81
2021/12/19 12:01:42;;;;;;;6.50;3.13;;;6.10;99.90;;;;;;10463085;28;20400;-78
2021/12/19 12:07:06;;;;;;;17.93;5.20;;;6.10;99.90;;;;;;10446486;28;20507;-81
2021/12/19 12:12:35;;;;;;;20.53;6.73;;;6.10;99.90;;;;;;10445975;28;20257;-81
2021/12/19 12:17:59;;;;;;;29.47;9.57;;;6.00;99.90;;;;;;10445044;28;20391;-80
2021/12/19 12:23:26;;;;;;;30.83;7.27;;;6.00;99.90;;;;;;10426423;28;20318;-80
2021/12/19 12:28:49;;;;;;;14.43;5.40;;;6.00;99.90;;;;;;10460657;28;20194;-80
2021/12/19 12:34:16;;;;;;;9.17;4.33;;;5.90;99.90;;;;;;10431310;28;20235;-80
2021/12/19 12:39:40;;;;;;;14.93;7.60;;;5.80;99.90;;;;;;10414959;28;20382;-81
2021/12/19 12:45:03;;;;;;;14.17;8.00;;;5.80;99.90;;;;;;10428225;28;20298;-80
2021/12/19 12:50:27;;;;;;;16.27;6.63;;;5.70;99.90;;;;;;10429507;28;20253;-81
2021/12/19 12:56:10;;;;;;;10.47;5.27;;;5.60;99.90;;;;;;10427721;28;20413;-80
2021/12/19 13:01:43;;;;;;;12.47;4.93;;;5.50;99.90;;;;;;10422968;28;20205;-80
2021/12/19 13:07:10;;;;;;;16.27;7.20;;;5.30;99.90;;;;;;10416613;28;20198;-80
2021/12/19 13:12:34;;;;;;;16.27;6.93;;;5.20;99.90;;;;;;10415000;28;20508;-83
2021/12/19 13:18:00;;;;;;;20.63;7.73;;;5.20;99.90;;;;;;10462024;28;20262;-81
2021/12/19 13:23:22;;;;;;;24.77;10.93;;;5.30;99.90;;;;;;10448486;28;20268;-81
2021/12/19 13:28:45;;;;;;;14.77;6.43;;;5.20;99.90;;;;;;10448424;28;20205;-82
2021/12/19 13:34:13;;;;;;;14.07;7.20;;;5.10;99.90;;;;;;10428123;28;20529;-81
2021/12/19 13:39:35;;;;;;;14.23;5.73;;;4.90;99.90;;;;;;10435056;28;20201;-82
2021/12/19 13:44:57;;;;;;;17.47;8.33;;;4.70;99.90;;;;;;10434998;28;20551;-81
2021/12/19 13:50:20;;;;;;;9.10;5.43;;;4.60;99.90;;;;;;10454181;28;20193;-82
2021/12/19 13:56:06;;;;;;;8.17;3.10;;;4.60;99.90;;;;;;10417696;28;20195;-81
2021/12/19 14:01:36;;;;;;;11.07;5.20;;;4.50;99.90;;;;;;10442983;28;20194;-82
2021/12/19 14:07:00;;;;;;;9.50;5.13;;;4.50;99.90;;;;;;10426190;28;20198;-81
2021/12/19 14:12:54;;;;;;;17.83;8.37;;;4.40;99.90;;;;;;10422142;28;20197;-80
2021/12/19 14:18:30;;;;;;;12.70;7.83;;;4.30;99.90;;;;;;10464809;28;20217;-81
2021/12/19 14:24:08;;;;;;;9.53;4.03;;;4.20;99.90;;;;;;10415521;28;20244;-80
2021/12/19 14:29:31;;;;;;;17.07;4.33;;;4.10;99.90;;;;;;10447414;28;20194;-80
2021/12/19 14:34:57;;;;;;;45.50;7.83;;;4.00;99.90;;;;;;10410926;28;20244;-88
2021/12/19 14:40:28;;;;;;;19.80;3.40;;;3.90;99.90;;;;;;10451073;28;20197;-85
2021/12/19 14:45:52;;;;;;;10.87;3.90;;;4.00;99.90;;;;;;10434669;28;20448;-86
2021/12/19 14:51:23;;;;;;;8.20;2.83;;;3.90;99.90;;;;;;10464922;28;20193;-81
2021/12/19 14:56:45;;;;;;;4.03;1.80;;;3.90;99.90;;;;;;10423053;28;20197;-80
2021/12/19 15:02:07;;;;;;;4.47;2.17;;;3.90;99.90;;;;;;10449840;28;20212;-79
2021/12/19 15:07:33;;;;;;;5.30;2.53;;;3.80;99.90;;;;;;10427669;28;20490;-80
2021/12/19 15:12:55;;;;;;;10.00;4.23;;;3.70;99.90;;;;;;10438378;28;20200;-79
2021/12/19 15:18:17;;;;;;;16.03;6.17;;;3.70;99.90;;;;;;10448488;28;20200;-80
2021/12/19 15:23:42;;;;;;;12.27;5.13;;;3.60;99.90;;;;;;10440287;28;20227;-86
2021/12/19 15:29:06;;;;;;;7.47;3.60;;;3.70;99.90;;;;;;10431127;28;20194;-78
2021/12/19 15:34:29;;;;;;;7.37;3.93;;;3.80;99.90;;;;;;10433323;28;20232;-79
2021/12/19 15:39:51;;;;;;;13.07;5.07;;;3.80;99.90;;;;;;10435053;28;20271;-79
2021/12/19 15:45:13;;;;;;;11.63;5.17;;;3.80;99.90;;;;;;10461521;28;20219;-79
2021/12/19 15:50:36;;;;;;;12.37;7.50;;;3.80;99.90;;;;;;10446037;28;20196;-79
2021/12/19 15:55:58;;;;;;;54.80;27.43;;;3.90;99.90;;;;;;10447426;28;20196;-79
2021/12/19 16:01:20;;;;;;;121.17;52.03;;;3.80;99.90;;;;;;10444770;28;20197;-80
2021/12/19 16:06:43;;;;;;;51.80;24.53;;;3.90;99.90;;;;;;10432171;28;20233;-80
2021/12/19 16:12:36;;;;;;;47.10;22.20;;;3.90;99.90;;;;;;10457055;28;20187;-78
2021/12/19 16:18:19;;;;;;;60.23;27.10;;;3.80;99.90;;;;;;10457179;28;20510;-80
2021/12/19 16:23:41;;;;;;;17.73;8.53;;;3.80;99.90;;;;;;10405548;28;20225;-79
2021/12/19 16:29:03;;;;;;;20.17;8.97;;;3.90;99.90;;;;;;10433142;28;20236;-79
2021/12/19 16:34:29;;;;;;;13.83;6.17;;;3.80;99.90;;;;;;10446607;28;20494;-79
2021/12/19 16:39:53;;;;;;;21.83;10.97;;;3.70;99.90;;;;;;10449498;28;20193;-79
2021/12/19 16:45:15;;;;;;;22.47;10.87;;;3.70;99.90;;;;;;10445549;28;20232;-79
2021/12/19 16:50:38;;;;;;;23.30;11.63;;;3.70;99.90;;;;;;10446288;28;20278;-79
2021/12/19 16:56:02;;;;;;;26.30;12.47;;;3.70;99.90;;;;;;10446171;28;20194;-79
2021/12/19 17:01:24;;;;;;;15.57;8.17;;;3.60;99.90;;;;;;10445034;28;20200;-79
2021/12/19 17:06:47;;;;;;;16.33;8.40;;;3.60;99.90;;;;;;10446068;28;20272;-79
2021/12/19 17:12:12;;;;;;;11.07;5.90;;;3.50;99.90;;;;;;10432502;28;20200;-79
2021/12/19 17:17:35;;;;;;;16.93;8.10;;;3.30;99.90;;;;;;10462745;28;20238;-79
2021/12/19 17:22:57;;;;;;;16.97;7.83;;;3.30;99.90;;;;;;10445393;28;20550;-79
2021/12/19 17:28:19;;;;;;;17.03;5.77;;;3.20;99.90;;;;;;10421031;28;20192;-79
2021/12/19 17:33:41;;;;;;;14.87;6.17;;;3.20;99.90;;;;;;10418414;28;20197;-79
2021/12/19 17:39:06;;;;;;;9.30;4.63;;;3.10;99.90;;;;;;10404785;28;20212;-79
2021/12/19 17:44:28;;;;;;;9.10;4.60;;;3.00;99.90;;;;;;10417913;28;20229;-79
2021/12/19 17:49:50;;;;;;;8.33;3.60;;;3.00;99.90;;;;;;10435553;28;20489;-79
2021/12/19 17:55:13;;;;;;;12.53;3.90;;;3.00;99.90;;;;;;10426478;28;20483;-80
2021/12/19 18:00:35;;;;;;;8.90;3.57;;;2.90;99.90;;;;;;10445036;28;20246;-79
2021/12/19 18:05:58;;;;;;;21.30;8.30;;;2.80;99.90;;;;;;10411945;28;20224;-79
2021/12/19 18:11:22;;;;;;;23.27;7.20;;;2.90;99.90;;;;;;10415382;28;20197;-80
2021/12/19 18:16:45;;;;;;;27.70;9.83;;;2.90;99.90;;;;;;10410561;28;20200;-80
2021/12/19 18:22:06;;;;;;;21.37;6.53;;;2.80;99.90;;;;;;10427606;28;20250;-79
2021/12/19 18:27:28;;;;;;;23.97;6.97;;;2.80;99.90;;;;;;10451355;28;20193;-79
2021/12/19 18:32:51;;;;;;;22.60;8.17;;;2.80;99.90;;;;;;10482764;28;20495;-79
2021/12/19 18:38:13;;;;;;;21.50;6.63;;;2.80;99.90;;;;;;10437053;28;20251;-79
2021/12/19 18:43:41;;;;;;;6.90;3.30;;;2.90;99.90;;;;;;10450723;28;20229;-78
2021/12/19 18:49:11;;;;;;;7.23;3.40;;;2.90;99.90;;;;;;10453153;28;20196;-79
2021/12/19 19:00:43;;;;;;;15.20;5.40;;;3.00;99.90;;;;;;10315153;28;20206;-78
2021/12/19 19:06:31;;;;;;;7.47;3.47;;;3.00;99.90;;;;;;10297678;28;20243;-79
2021/12/19 19:11:51;;;;;;;9.10;3.87;;;3.00;99.90;;;;;;10285147;28;20526;-79
2021/12/19 19:17:15;;;;;;;12.03;4.77;;;3.00;99.90;;;;;;10300920;28;20198;-79
2021/12/19 19:22:37;;;;;;;6.90;2.83;;;3.00;99.90;;;;;;10285363;28;20285;-78
2021/12/19 19:28:00;;;;;;;19.73;4.97;;;3.10;99.90;;;;;;10284138;28;20213;-79
2021/12/19 19:33:22;;;;;;;10.73;3.30;;;3.20;99.90;;;;;;10383193;28;20205;-79
2021/12/19 19:44:37;;;;;;;11.30;3.70;;;3.20;99.90;;;;;;10479853;28;20233;-78
2021/12/19 19:50:00;;;;;;;10.60;3.47;;;3.30;99.90;;;;;;10448530;28;20200;-78
2021/12/19 19:55:22;;;;;;;7.80;2.83;;;3.30;99.90;;;;;;10450538;28;20195;-79
2021/12/19 20:00:45;;;;;;;6.33;2.97;;;3.20;99.90;;;;;;10461295;28;20418;-78
2021/12/19 20:06:09;;;;;;;6.23;2.30;;;3.20;99.90;;;;;;10447913;28;20245;-80
2021/12/19 20:11:31;;;;;;;11.63;4.30;;;3.20;99.90;;;;;;10447441;28;20191;-78
2021/12/19 20:16:58;;;;;;;10.50;4.37;;;3.10;99.90;;;;;;10463747;28;20196;-78
2021/12/19 20:22:20;;;;;;;4.97;2.30;;;3.00;99.90;;;;;;10447438;28;20386;-80
2021/12/19 20:27:42;;;;;;;6.23;2.60;;;2.90;99.90;;;;;;10460514;28;20196;-81
2021/12/19 20:33:06;;;;;;;6.43;2.83;;;2.90;99.90;;;;;;10447356;28;20223;-80
2021/12/19 20:38:30;;;;;;;5.37;2.77;;;2.90;99.90;;;;;;10446481;28;20256;-79
2021/12/19 20:43:55;;;;;;;6.00;2.50;;;2.90;99.90;;;;;;10459992;28;20453;-78
2021/12/19 20:49:19;;;;;;;12.83;2.90;;;2.90;99.90;;;;;;10446165;28;20195;-79
2021/12/19 20:54:41;;;;;;;6.37;2.80;;;2.90;99.90;;;;;;10462618;28;20192;-78
2021/12/19 21:00:07;;;;;;;4.40;2.43;;;2.90;99.90;;;;;;10449563;28;20222;-77
2021/12/19 21:05:32;;;;;;;7.27;3.63;;;2.90;99.90;;;;;;10459821;28;20231;-79
2021/12/19 21:10:55;;;;;;;6.97;3.47;;;2.80;99.90;;;;;;10446121;28;20196;-79
2021/12/19 21:22:08;;;;;;;6.83;2.47;;;2.80;99.90;;;;;;10449909;28;20223;-79
2021/12/19 21:27:30;;;;;;;4.33;2.73;;;2.80;99.90;;;;;;10458925;28;20223;-78
2021/12/19 21:32:54;;;;;;;6.97;2.40;;;2.80;99.90;;;;;;10463870;28;20368;-78
2021/12/19 21:44:01;;;;;;;5.20;1.63;;;2.80;99.90;;;;;;10466356;28;20208;-78
2021/12/19 21:49:24;;;;;;;5.47;1.30;;;2.80;99.90;;;;;;10478614;28;20211;-80
2021/12/19 21:54:46;;;;;;;3.07;1.63;;;2.80;99.90;;;;;;10438753;28;20184;-80
2021/12/19 22:00:14;;;;;;;5.73;2.17;;;2.90;99.90;;;;;;10436394;28;20205;-80
2021/12/19 22:05:43;;;;;;;3.63;1.30;;;3.00;99.90;;;;;;10407820;28;20418;-78
2021/12/19 22:11:14;;;;;;;4.13;1.70;;;3.00;99.90;;;;;;10432336;28;20188;-78
2021/12/19 22:16:42;;;;;;;5.27;1.30;;;3.00;99.90;;;;;;10431663;28;20196;-78
2021/12/19 22:22:05;;;;;;;3.73;1.67;;;2.90;99.90;;;;;;10421404;28;20196;-78
2021/12/19 22:27:27;;;;;;;3.57;1.10;;;2.90;99.90;;;;;;10449456;28;20239;-79
2021/12/19 22:32:52;;;;;;;4.83;1.70;;;2.90;99.90;;;;;;10464376;28;20195;-80
2021/12/19 22:38:14;;;;;;;4.40;1.80;;;2.90;99.90;;;;;;10475442;28;20309;-78
2021/12/19 22:43:41;;;;;;;6.90;1.33;;;2.90;99.90;;;;;;10455187;28;20273;-78
2021/12/19 22:49:06;;;;;;;4.90;1.77;;;2.90;99.90;;;;;;10464524;28;20279;-79
2021/12/19 22:54:29;;;;;;;4.00;1.47;;;2.80;99.90;;;;;;10436486;28;20215;-78
2021/12/19 22:59:51;;;;;;;4.60;1.50;;;2.60;99.90;;;;;;10467103;28;20191;-80
2021/12/19 23:05:31;;;;;;;2.70;1.40;;;2.70;99.90;;;;;;10441388;28;20531;-78
2021/12/19 23:11:00;;;;;;;3.83;1.30;;;2.70;99.90;;;;;;10466969;28;20201;-80
2021/12/19 23:16:39;;;;;;;5.77;1.23;;;2.50;99.90;;;;;;10451554;28;20203;-82
2021/12/19 23:22:02;;;;;;;3.47;1.43;;;2.40;99.90;;;;;;10445832;28;20245;-80
2021/12/19 23:27:23;;;;;;;5.87;1.40;;;2.40;99.90;;;;;;10451874;28;20395;-80
2021/12/19 23:33:50;;;;;;;3.27;1.33;;;2.40;99.90;;;;;;10448679;28;20195;-80
2021/12/19 23:49:33;;;;;;;6.97;1.50;;;2.40;99.90;;;;;;10479779;28;20195;-80
2021/12/19 23:54:58;;;;;;;5.60;1.77;;;2.40;99.90;;;;;;10433891;28;20479;-78
